Time;durP1;ratioP1;P1;durP2;ratioP2;P2;SDS_P1;SDS_P2;PMS_P1;PMS_P2;Temp;Humidity;BMP_temperature;BMP_pressure;BME280_temperature;BME280_humidity;BME280_pressure;Samples;Min_cycle;Max_cycle;Signal;HPM_P1;HPM_P2
2024/03/11 00:00:33;;;;;;;1.83;1.27;;;;;;;6.39;90.23;93908.09;5055957;28;20216;-80
2024/03/11 00:02:59;;;;;;;1.40;1.30;;;;;;;6.31;90.54;93903.72;5075854;28;20228;-79
2024/03/11 00:05:26;;;;;;;1.40;1.30;;;;;;;6.34;90.53;93916.28;5056710;28;20302;-79
2024/03/11 00:07:51;;;;;;;2.50;1.20;;;;;;;6.29;91.27;93918.56;5057142;28;20185;-79
2024/03/11 00:10:18;;;;;;;1.73;1.20;;;;;;;6.43;90.85;93922.25;5075656;28;20184;-80
2024/03/11 00:12:50;;;;;;;1.23;1.13;;;;;;;6.42;90.97;93926.59;5058332;28;20645;-79
2024/03/11 00:15:15;;;;;;;1.00;0.90;;;;;;;6.37;91.40;93930.66;5057845;28;20215;-79
2024/03/11 00:17:42;;;;;;;0.83;0.83;;;;;;;6.50;90.51;93926.59;5072916;28;20306;-79
2024/03/11 00:20:09;;;;;;;1.33;1.00;;;;;;;6.47;90.46;93937.25;5058658;28;20192;-80
2024/03/11 00:22:36;;;;;;;2.00;0.80;;;;;;;6.52;90.82;93937.56;5053724;28;20199;-79
2024/03/11 00:25:02;;;;;;;1.00;0.70;;;;;;;6.49;91.27;93944.81;5068990;28;20907;-79
2024/03/11 00:27:27;;;;;;;1.17;0.70;;;;;;;6.30;91.94;93945.94;5055647;28;20201;-79
2024/03/11 00:29:53;;;;;;;0.67;0.60;;;;;;;6.38;91.50;93943.38;5071890;28;20195;-78
2024/03/11 00:32:19;;;;;;;1.63;0.77;;;;;;;6.44;90.83;93941.91;5058232;28;20596;-79
2024/03/11 00:34:45;;;;;;;1.87;0.80;;;;;;;6.59;90.16;93947.22;5058287;28;20184;-79
2024/03/11 00:37:14;;;;;;;0.77;0.73;;;;;;;6.61;90.23;93942.72;5075516;28;20261;-79
2024/03/11 00:39:40;;;;;;;0.67;0.67;;;;;;;6.61;90.21;93953.03;5056420;28;20188;-79
2024/03/11 00:42:06;;;;;;;2.80;0.80;;;;;;;6.60;90.14;93947.06;5074836;28;20263;-79
2024/03/11 00:44:31;;;;;;;2.20;0.80;;;;;;;6.64;90.10;93950.94;5057048;28;20213;-79
2024/03/11 00:46:56;;;;;;;0.93;0.80;;;;;;;6.64;90.50;93957.88;5091306;28;20219;-79
2024/03/11 00:49:22;;;;;;;0.90;0.80;;;;;;;6.76;89.70;93948.84;5058545;28;20224;-79
2024/03/11 00:51:47;;;;;;;0.80;0.70;;;;;;;6.84;89.32;93948.81;5073547;28;20592;-79
2024/03/11 00:54:13;;;;;;;0.80;0.70;;;;;;;6.84;89.84;93953.19;5057976;28;20211;-79
2024/03/11 00:56:39;;;;;;;0.90;0.90;;;;;;;6.69;90.73;93950.44;5073954;28;20306;-79
2024/03/11 00:59:04;;;;;;;0.90;0.90;;;;;;;6.78;90.21;93955.44;5073418;28;20210;-80
2024/03/11 01:01:30;;;;;;;0.87;0.77;;;;;;;6.76;90.30;93964.31;5055676;28;20196;-79
2024/03/11 01:03:56;;;;;;;0.90;0.90;;;;;;;6.67;90.42;93963.50;5056303;28;20213;-79
2024/03/11 01:06:21;;;;;;;1.83;0.80;;;;;;;6.84;89.75;93973.81;5090466;28;20627;-79
2024/03/11 01:08:46;;;;;;;1.27;0.83;;;;;;;6.84;89.39;93976.41;5074608;28;20185;-79
2024/03/11 01:11:12;;;;;;;1.67;0.90;;;;;;;6.88;89.46;93968.16;5090455;28;20601;-79
2024/03/11 01:13:38;;;;;;;0.80;0.80;;;;;;;6.90;89.16;93971.41;5055356;28;20678;-80
2024/03/11 01:16:04;;;;;;;0.80;0.80;;;;;;;6.87;89.29;93974.28;5058088;28;20692;-80
2024/03/11 01:18:29;;;;;;;0.97;0.97;;;;;;;6.89;89.42;93982.69;5069361;28;20670;-78
2024/03/11 01:20:54;;;;;;;0.60;0.60;;;;;;;6.85;89.29;93981.41;5058201;28;20191;-79
2024/03/11 01:23:20;;;;;;;1.00;0.87;;;;;;;6.84;89.33;93984.94;5091073;28;20207;-79
2024/03/11 01:25:46;;;;;;;0.73;0.73;;;;;;;6.86;89.46;93982.19;5071426;28;20774;-80
2024/03/11 01:28:11;;;;;;;0.60;0.60;;;;;;;6.97;89.20;93987.81;5074451;28;20653;-79
2024/03/11 01:30:37;;;;;;;0.83;0.83;;;;;;;7.01;88.67;93988.31;5058196;28;20657;-79
2024/03/11 01:33:04;;;;;;;0.63;0.63;;;;;;;6.96;88.85;93983.63;5073001;28;20177;-79
2024/03/11 01:35:30;;;;;;;1.03;0.77;;;;;;;6.88;89.13;93988.78;5052903;28;20224;-80
2024/03/11 01:37:55;;;;;;;0.70;0.70;;;;;;;6.91;89.24;93996.25;5058162;28;20191;-79
2024/03/11 01:40:22;;;;;;;1.20;0.87;;;;;;;6.87;89.34;93994.13;5071480;28;20527;-79
2024/03/11 01:42:47;;;;;;;1.10;1.00;;;;;;;6.89;88.99;94003.34;5055867;28;20248;-79
2024/03/11 01:45:13;;;;;;;1.77;0.90;;;;;;;6.66;90.13;94008.34;5071925;28;20249;-79
2024/03/11 01:47:39;;;;;;;1.20;1.00;;;;;;;6.69;90.02;94004.63;5053846;28;20278;-79
2024/03/11 01:50:08;;;;;;;1.47;1.00;;;;;;;6.71;89.70;93998.31;5074089;28;20193;-79
2024/03/11 01:52:38;;;;;;;1.23;0.93;;;;;;;6.84;88.52;94007.38;5073766;28;20192;-79
2024/03/11 01:55:04;;;;;;;1.37;1.00;;;;;;;6.60;89.89;94008.16;5070691;28;20915;-79
2024/03/11 01:57:33;;;;;;;1.90;1.20;;;;;;;6.65;90.00;94011.09;5074080;28;20661;-79
2024/03/11 01:59:58;;;;;;;1.37;0.90;;;;;;;6.75;89.54;94016.88;5057065;28;20187;-79
2024/03/11 02:02:24;;;;;;;1.00;0.90;;;;;;;6.77;89.03;94014.94;5074537;28;20196;-79
2024/03/11 02:04:49;;;;;;;1.30;1.13;;;;;;;6.84;88.50;94013.34;5071168;28;20188;-79
2024/03/11 02:07:15;;;;;;;0.97;0.90;;;;;;;6.86;88.57;94011.38;5057412;28;20241;-79
2024/03/11 02:09:41;;;;;;;1.20;1.10;;;;;;;6.77;89.06;94012.34;5072002;28;20185;-79
2024/03/11 02:12:08;;;;;;;1.10;0.90;;;;;;;6.68;89.82;94010.75;5074062;28;20216;-79
2024/03/11 02:14:35;;;;;;;1.93;0.97;;;;;;;6.82;89.02;94012.69;5091357;28;20290;-79
2024/03/11 02:17:01;;;;;;;0.80;0.80;;;;;;;6.71;88.93;94016.38;5057629;28;20204;-79
2024/03/11 02:19:27;;;;;;;0.97;0.90;;;;;;;6.66;89.67;94012.69;5071704;28;20193;-79
2024/03/11 02:21:52;;;;;;;1.70;0.93;;;;;;;6.75;88.99;94009.94;5095860;28;20184;-79
2024/03/11 02:24:17;;;;;;;1.00;0.93;;;;;;;6.61;89.28;94010.56;5075166;28;20243;-79
2024/03/11 02:26:47;;;;;;;1.00;0.80;;;;;;;6.49;89.74;94017.84;5072420;28;20204;-79
2024/03/11 02:29:16;;;;;;;1.17;0.80;;;;;;;6.44;89.99;94019.25;5075214;28;20665;-79
2024/03/11 02:31:44;;;;;;;3.47;1.20;;;;;;;6.61;89.17;94015.72;5077717;28;20199;-79
2024/03/11 02:34:11;;;;;;;1.83;1.00;;;;;;;6.60;88.17;94013.31;5074033;28;20181;-79
2024/03/11 02:36:38;;;;;;;2.17;1.00;;;;;;;6.34;89.77;94011.69;5075928;28;20204;-79
2024/03/11 02:39:07;;;;;;;3.23;1.40;;;;;;;6.18;90.46;94019.38;5077703;28;20203;-79
2024/03/11 02:41:39;;;;;;;1.10;1.00;;;;;;;6.40;89.44;94016.22;5060290;28;20216;-79
2024/03/11 02:44:04;;;;;;;1.50;1.20;;;;;;;6.33;89.28;94011.84;5075499;28;20216;-79
2024/03/11 02:46:31;;;;;;;1.17;1.10;;;;;;;6.41;89.51;94019.59;5075572;28;20692;-79
2024/03/11 02:48:57;;;;;;;1.70;1.20;;;;;;;6.41;89.05;94015.25;5095734;28;20180;-79
2024/03/11 02:51:22;;;;;;;1.40;1.30;;;;;;;6.02;91.14;94019.38;5059986;28;20680;-79
2024/03/11 02:53:48;;;;;;;1.20;1.10;;;;;;;6.10;90.88;94020.19;5075937;28;20180;-79
2024/03/11 02:56:13;;;;;;;1.73;1.43;;;;;;;6.15;90.63;94019.72;5094005;28;20208;-80
2024/03/11 02:58:39;;;;;;;2.10;1.10;;;;;;;6.17;89.98;94025.50;5095268;28;20555;-79
2024/03/11 03:01:05;;;;;;;3.80;1.30;;;;;;;6.18;89.56;94022.78;5076067;28;20668;-79
2024/03/11 03:03:30;;;;;;;1.83;1.17;;;;;;;6.28;89.09;94024.44;5058670;28;20216;-79
2024/03/11 03:05:56;;;;;;;2.10;1.43;;;;;;;6.18;89.60;94022.78;5075430;28;20212;-79
2024/03/11 03:08:21;;;;;;;1.30;1.20;;;;;;;6.32;88.37;94029.09;5076015;28;20192;-80
2024/03/11 03:10:46;;;;;;;3.30;2.30;;;;;;;6.18;89.57;94032.28;5074571;28;20184;-80
2024/03/11 03:13:12;;;;;;;1.50;1.40;;;;;;;6.18;88.64;94037.44;5059594;28;20184;-80
2024/03/11 03:15:37;;;;;;;2.90;1.50;;;;;;;6.16;88.32;94037.59;5073572;28;20553;-77
2024/03/11 03:18:03;;;;;;;2.60;1.33;;;;;;;6.11;88.49;94037.28;5095115;28;20229;-79
2024/03/11 03:20:28;;;;;;;1.10;1.00;;;;;;;6.08;88.71;94036.75;5074784;28;20183;-80
2024/03/11 03:22:53;;;;;;;1.27;1.17;;;;;;;6.04;88.88;94040.63;5094787;28;20196;-80
2024/03/11 03:25:19;;;;;;;1.40;1.30;;;;;;;6.00;88.73;94037.53;5076257;28;20204;-78
2024/03/11 03:27:46;;;;;;;1.00;1.00;;;;;;;5.90;89.68;94045.41;5074150;28;20176;-80
2024/03/11 03:30:12;;;;;;;1.17;1.07;;;;;;;5.86;89.51;94049.22;5075418;28;20196;-79
2024/03/11 03:32:37;;;;;;;1.97;1.13;;;;;;;5.98;88.67;94044.63;5076241;28;20196;-78
2024/03/11 03:35:05;;;;;;;1.73;1.33;;;;;;;5.90;89.16;94053.13;5059362;28;20199;-77
2024/03/11 03:37:30;;;;;;;2.00;1.10;;;;;;;5.71;90.41;94055.13;5056671;28;20274;-77
2024/03/11 03:39:56;;;;;;;1.57;1.10;;;;;;;5.81;89.18;94058.38;5076230;28;20216;-78
2024/03/11 03:42:22;;;;;;;2.20;1.30;;;;;;;5.72;89.37;94059.31;5073198;28;20253;-78
2024/03/11 03:44:47;;;;;;;1.60;1.40;;;;;;;5.80;89.21;94067.06;5073719;28;20686;-79
2024/03/11 03:47:14;;;;;;;1.83;1.10;;;;;;;5.71;88.96;94063.66;5059703;28;20617;-77
2024/03/11 03:49:39;;;;;;;1.63;1.00;;;;;;;5.69;88.61;94065.56;5072775;28;20726;-78
2024/03/11 03:52:05;;;;;;;1.73;1.30;;;;;;;5.69;88.44;94068.16;5059638;28;20196;-78
2024/03/11 03:54:30;;;;;;;2.03;0.97;;;;;;;5.55;89.35;94068.72;5093144;28;20541;-78
2024/03/11 03:56:55;;;;;;;1.20;1.10;;;;;;;5.53;89.07;94068.06;5084995;28;20704;-77
2024/03/11 03:59:21;;;;;;;1.13;1.00;;;;;;;5.54;89.34;94072.25;5079281;28;20219;-77
2024/03/11 04:01:47;;;;;;;1.17;1.00;;;;;;;5.51;89.40;94070.00;5103297;28;20192;-77
2024/03/11 04:04:12;;;;;;;1.33;1.23;;;;;;;5.44;89.48;94085.25;5076880;28;20219;-78
2024/03/11 04:06:38;;;;;;;1.20;1.10;;;;;;;5.25;90.42;94077.72;5059766;28;20212;-79
2024/03/11 04:09:07;;;;;;;1.73;1.13;;;;;;;5.37;89.47;94079.88;5059494;28;20570;-78
2024/03/11 04:11:35;;;;;;;1.50;1.20;;;;;;;5.34;89.72;94076.81;5056356;28;20204;-79
2024/03/11 04:14:00;;;;;;;1.40;1.20;;;;;;;5.25;90.55;94073.38;5059536;28;20535;-79
2024/03/11 04:16:28;;;;;;;1.20;1.07;;;;;;;5.19;90.62;94073.16;5091347;28;20226;-78
2024/03/11 04:18:54;;;;;;;1.73;1.30;;;;;;;5.19;91.13;94073.97;5060253;28;20209;-78
2024/03/11 04:21:19;;;;;;;1.27;0.90;;;;;;;5.25;90.67;94078.53;5074091;28;20563;-79
2024/03/11 04:23:45;;;;;;;2.53;1.17;;;;;;;5.28;90.25;94074.84;5075793;28;20192;-78
2024/03/11 04:26:11;;;;;;;1.43;0.93;;;;;;;5.20;90.82;94075.59;5059447;28;20228;-79
2024/03/11 04:28:36;;;;;;;1.43;1.07;;;;;;;5.19;90.14;94078.31;5067130;28;20211;-79
2024/03/11 04:31:02;;;;;;;1.37;1.27;;;;;;;5.06;90.80;94074.38;5072701;28;20669;-78
2024/03/11 04:33:29;;;;;;;1.40;1.30;;;;;;;5.09;90.94;94078.41;5075058;28;20638;-79
2024/03/11 04:35:54;;;;;;;3.10;1.53;;;;;;;5.06;90.86;94084.66;5075160;28;20249;-79
2024/03/11 04:38:20;;;;;;;2.97;1.10;;;;;;;5.05;90.70;94087.41;5059328;28;20251;-79
2024/03/11 04:40:47;;;;;;;2.43;1.27;;;;;;;5.06;90.35;94081.28;5075783;28;20194;-79
2024/03/11 04:43:13;;;;;;;1.30;1.20;;;;;;;5.01;89.85;94092.03;5055785;28;20258;-79
2024/03/11 04:45:39;;;;;;;2.60;1.60;;;;;;;5.02;89.56;94088.50;5073322;28;20208;-78
2024/03/11 04:48:06;;;;;;;1.40;1.30;;;;;;;4.98;89.68;94084.59;5075914;28;20183;-78
2024/03/11 04:50:32;;;;;;;1.70;1.60;;;;;;;4.88;89.87;94091.59;5063584;28;20192;-79
2024/03/11 04:53:02;;;;;;;2.73;1.97;;;;;;;4.78;88.42;94089.13;5074055;28;20176;-78
2024/03/11 04:55:28;;;;;;;2.13;1.93;;;;;;;4.73;88.84;94091.31;5091739;28;20213;-79
2024/03/11 04:57:54;;;;;;;4.97;3.30;;;;;;;4.69;89.84;94089.19;5074590;28;20267;-78
2024/03/11 05:00:20;;;;;;;9.07;4.57;;;;;;;4.52;91.97;94101.09;5070655;28;20226;-78
2024/03/11 05:02:46;;;;;;;4.53;2.60;;;;;;;4.66;90.95;94094.63;5091478;28;20177;-79
2024/03/11 05:05:11;;;;;;;2.10;1.60;;;;;;;4.66;91.19;94097.19;5058133;28;20211;-79
2024/03/11 05:07:37;;;;;;;2.43;1.63;;;;;;;4.61;91.44;94100.22;5074503;28;20192;-79
2024/03/11 05:10:03;;;;;;;1.50;1.40;;;;;;;4.52;91.50;94101.09;5073054;28;20226;-78
2024/03/11 05:12:29;;;;;;;1.60;1.43;;;;;;;4.52;91.63;94104.47;5075388;28;20267;-79
2024/03/11 05:14:55;;;;;;;1.43;1.33;;;;;;;4.59;90.69;94099.53;5075822;28;20205;-78
2024/03/11 05:17:20;;;;;;;1.73;1.63;;;;;;;4.67;89.96;94103.94;5058671;28;20282;-79
2024/03/11 05:19:48;;;;;;;1.83;1.70;;;;;;;4.65;90.94;94098.16;5091802;28;20185;-78
2024/03/11 05:22:14;;;;;;;1.73;1.33;;;;;;;4.66;90.94;94102.31;5087964;28;20272;-78
2024/03/11 05:24:39;;;;;;;2.80;1.30;;;;;;;4.66;90.72;94102.31;5072860;28;20235;-78
2024/03/11 05:27:08;;;;;;;1.93;1.37;;;;;;;4.53;91.15;94103.50;5078879;28;20203;-77
2024/03/11 05:29:34;;;;;;;1.93;1.13;;;;;;;4.60;91.01;94108.09;5076050;28;20269;-78
2024/03/11 05:31:59;;;;;;;2.80;1.30;;;;;;;4.63;90.87;94116.28;5077677;28;20764;-78
2024/03/11 05:34:25;;;;;;;3.67;1.43;;;;;;;4.57;90.81;94122.00;5057656;28;20193;-78
2024/03/11 05:36:50;;;;;;;1.23;1.13;;;;;;;4.52;91.94;94114.75;5074803;28;20193;-78
2024/03/11 05:39:16;;;;;;;1.83;1.60;;;;;;;4.49;91.59;94124.50;5060515;28;20200;-78
2024/03/11 05:41:43;;;;;;;3.83;1.37;;;;;;;4.62;91.71;94121.59;5075718;28;20207;-78
2024/03/11 05:44:08;;;;;;;1.20;1.00;;;;;;;4.62;92.19;94134.44;5060908;28;20217;-78
2024/03/11 05:46:34;;;;;;;1.77;1.10;;;;;;;4.68;91.04;94136.41;5075454;28;20270;-78
2024/03/11 05:49:00;;;;;;;3.00;1.30;;;;;;;4.57;92.41;94136.63;5077724;28;20715;-78
2024/03/11 05:51:30;;;;;;;3.37;1.23;;;;;;;4.73;91.59;94142.75;5076435;28;20260;-78
2024/03/11 05:53:58;;;;;;;1.43;1.33;;;;;;;4.74;90.73;94146.94;5058133;28;20223;-78
2024/03/11 05:56:24;;;;;;;1.30;0.97;;;;;;;4.79;90.60;94144.75;5061764;28;20203;-78
2024/03/11 05:58:50;;;;;;;1.20;1.10;;;;;;;4.71;91.36;94156.72;5058625;28;20176;-77
2024/03/11 06:01:15;;;;;;;1.10;1.00;;;;;;;4.81;90.56;94149.72;5073066;28;20177;-77
2024/03/11 06:03:40;;;;;;;1.30;1.03;;;;;;;4.89;90.20;94157.53;5072275;28;20197;-77
2024/03/11 06:06:06;;;;;;;1.60;1.10;;;;;;;4.87;90.55;94164.59;5072863;28;20283;-78
2024/03/11 06:08:31;;;;;;;1.50;1.20;;;;;;;5.00;90.30;94159.06;5066017;28;20231;-77
2024/03/11 06:10:57;;;;;;;2.27;1.10;;;;;;;5.03;89.87;94163.91;5074357;28;20180;-79
2024/03/11 06:13:22;;;;;;;2.43;0.93;;;;;;;4.98;90.18;94156.66;5071331;28;20479;-77
2024/03/11 06:15:47;;;;;;;1.63;0.80;;;;;;;5.13;89.56;94162.09;5057140;28;20287;-77
2024/03/11 06:18:13;;;;;;;0.80;0.80;;;;;;;5.20;89.12;94168.22;5061537;28;20190;-78
2024/03/11 06:20:38;;;;;;;1.57;1.27;;;;;;;5.23;88.85;94173.09;5080722;28;20259;-77
2024/03/11 06:23:04;;;;;;;0.93;0.80;;;;;;;5.24;89.23;94176.47;5080255;28;20589;-76
2024/03/11 06:25:30;;;;;;;2.47;1.63;;;;;;;5.42;89.15;94176.47;5078125;28;20192;-77
2024/03/11 06:27:56;;;;;;;1.37;1.10;;;;;;;5.52;88.50;94184.91;5061544;28;20264;-76
2024/03/11 06:30:22;;;;;;;3.97;1.40;;;;;;;5.53;88.11;94186.50;5077739;28;20265;-76
2024/03/11 06:32:51;;;;;;;2.87;1.20;;;;;;;5.70;88.03;94190.81;5060514;28;20176;-77
2024/03/11 06:35:16;;;;;;;2.83;1.13;;;;;;;5.61;88.35;94187.38;5076787;28;20287;-78
2024/03/11 06:37:43;;;;;;;1.70;1.23;;;;;;;5.73;88.08;94193.09;5077975;28;20843;-77
2024/03/11 06:40:09;;;;;;;4.63;2.53;;;;;;;5.80;87.58;94191.53;5091856;28;20256;-76
2024/03/11 06:42:36;;;;;;;3.73;2.97;;;;;;;5.82;87.63;94199.09;5071034;28;20410;-76
2024/03/11 06:45:01;;;;;;;5.40;3.67;;;;;;;5.91;87.33;94198.22;5061138;28;20180;-78
2024/03/11 06:47:27;;;;;;;6.80;3.60;;;;;;;5.93;86.45;94201.47;5075987;28;20191;-77
2024/03/11 06:49:52;;;;;;;5.53;3.47;;;;;;;6.02;86.58;94204.91;5079368;28;20251;-78
2024/03/11 06:52:18;;;;;;;4.97;3.50;;;;;;;6.01;86.02;94208.41;5076653;28;20700;-80
2024/03/11 06:54:44;;;;;;;3.70;3.00;;;;;;;5.93;86.23;94217.75;5078822;28;20180;-79
2024/03/11 06:57:10;;;;;;;4.47;3.27;;;;;;;5.80;86.71;94226.78;5075209;28;20201;-80
2024/03/11 06:59:35;;;;;;;5.63;3.90;;;;;;;5.77;86.17;94216.78;5078704;28;20200;-78
2024/03/11 07:02:01;;;;;;;2.80;2.23;;;;;;;5.77;86.46;94227.09;5078549;28;20612;-78
2024/03/11 07:04:26;;;;;;;3.10;2.00;;;;;;;5.69;87.43;94238.94;5060907;28;20299;-77
2024/03/11 07:06:51;;;;;;;1.37;1.20;;;;;;;5.82;87.23;94235.16;5060441;28;20208;-77
2024/03/11 07:09:18;;;;;;;2.23;0.97;;;;;;;5.90;86.63;94235.22;5063391;28;20192;-78
2024/03/11 07:11:44;;;;;;;1.83;0.83;;;;;;;6.03;86.29;94237.44;5080247;28;20188;-78
2024/03/11 07:14:13;;;;;;;1.07;0.63;;;;;;;6.06;86.53;94240.50;5078142;28;20187;-77
2024/03/11 07:16:42;;;;;;;0.97;0.70;;;;;;;6.10;85.45;94244.41;5062795;28;20201;-77
2024/03/11 07:19:09;;;;;;;1.73;0.90;;;;;;;6.04;86.13;94244.22;5066640;28;20552;-77
2024/03/11 07:21:34;;;;;;;1.13;0.67;;;;;;;6.25;86.21;94249.81;5066243;28;20183;-77
2024/03/11 07:24:01;;;;;;;2.63;0.87;;;;;;;6.40;84.86;94252.63;5081445;28;20196;-78
2024/03/11 07:26:26;;;;;;;1.53;1.00;;;;;;;6.52;84.73;94261.69;5067290;28;20214;-78
2024/03/11 07:28:52;;;;;;;0.90;0.70;;;;;;;6.60;84.37;94263.50;5077813;28;20176;-77
2024/03/11 07:31:17;;;;;;;1.37;0.60;;;;;;;6.76;84.46;94266.16;5061992;28;20178;-79
2024/03/11 07:33:44;;;;;;;2.37;0.80;;;;;;;6.73;84.37;94274.22;5077844;28;20338;-78
2024/03/11 07:36:10;;;;;;;0.87;0.53;;;;;;;6.74;85.08;94276.66;5084148;28;20230;-78
2024/03/11 07:38:35;;;;;;;1.33;1.23;;;;;;;7.00;83.48;94279.16;5085906;28;20184;-77
2024/03/11 07:41:00;;;;;;;0.90;0.70;;;;;;;6.90;83.30;94283.66;5104789;28;20742;-77
2024/03/11 07:43:27;;;;;;;0.77;0.70;;;;;;;7.19;82.21;94283.25;5068099;28;20208;-78
2024/03/11 07:45:53;;;;;;;4.87;0.80;;;;;;;7.12;82.13;94281.44;5086936;28;20207;-77
2024/03/11 07:48:18;;;;;;;0.97;0.70;;;;;;;7.36;80.78;94287.47;5102055;28;20180;-77
2024/03/11 07:50:44;;;;;;;0.50;0.50;;;;;;;7.20;81.08;94279.69;5070170;28;20177;-78
2024/03/11 07:53:12;;;;;;;1.27;0.70;;;;;;;7.47;80.82;94283.78;5078907;28;20178;-78
2024/03/11 07:55:38;;;;;;;1.47;0.67;;;;;;;7.29;81.02;94283.91;5084183;28;20204;-78
2024/03/11 07:58:04;;;;;;;1.10;0.60;;;;;;;7.44;81.12;94281.53;5065596;28;20212;-78
2024/03/11 08:00:29;;;;;;;0.70;0.67;;;;;;;7.81;79.81;94288.81;5065775;28;20223;-78
2024/03/11 08:02:58;;;;;;;0.90;0.77;;;;;;;8.04;78.78;94295.91;5082491;28;20689;-77
2024/03/11 08:05:24;;;;;;;2.00;0.70;;;;;;;8.15;77.74;94293.81;5079318;28;20283;-77
2024/03/11 08:07:49;;;;;;;1.17;0.30;;;;;;;8.09;78.03;94297.06;5064082;28;20172;-76
2024/03/11 08:10:15;;;;;;;0.63;0.60;;;;;;;8.19;77.69;94299.47;5078496;28;20177;-76
2024/03/11 08:12:45;;;;;;;2.23;0.70;;;;;;;8.23;77.48;94306.75;5081970;28;20189;-75
2024/03/11 08:15:14;;;;;;;0.63;0.50;;;;;;;8.28;77.08;94310.63;5075012;28;20223;-77
2024/03/11 08:17:42;;;;;;;0.60;0.60;;;;;;;8.27;76.55;94317.56;5068681;28;20271;-76
2024/03/11 08:20:08;;;;;;;2.23;0.63;;;;;;;8.05;76.76;94313.88;5077108;28;20264;-77
2024/03/11 08:22:37;;;;;;;0.93;0.60;;;;;;;8.43;75.98;94324.53;5093416;28;20193;-77
2024/03/11 08:25:04;;;;;;;2.27;0.73;;;;;;;8.53;75.61;94330.34;5078346;28;20284;-77
2024/03/11 08:27:31;;;;;;;0.50;0.50;;;;;;;8.36;74.58;94336.50;5074604;28;20185;-77
2024/03/11 08:29:57;;;;;;;1.40;0.60;;;;;;;8.62;74.60;94336.31;5059152;28;20234;-77
2024/03/11 08:32:23;;;;;;;0.90;0.50;;;;;;;8.74;74.93;94338.38;5078476;28;20180;-77
2024/03/11 08:34:48;;;;;;;0.77;0.77;;;;;;;8.68;73.71;94339.03;5079129;28;20207;-77
2024/03/11 08:37:14;;;;;;;1.90;0.67;;;;;;;8.78;72.43;94350.03;5075343;28;20248;-76
2024/03/11 08:39:39;;;;;;;1.73;0.63;;;;;;;8.65;74.01;94349.72;5077029;28;20191;-77
2024/03/11 08:42:04;;;;;;;0.60;0.60;;;;;;;8.95;72.39;94352.56;5072516;28;20207;-75
2024/03/11 08:44:30;;;;;;;0.60;0.60;;;;;;;8.82;72.49;94353.06;5091577;28;20251;-77
2024/03/11 08:46:56;;;;;;;1.87;0.50;;;;;;;8.76;73.23;94359.72;5061511;28;20257;-77
2024/03/11 08:49:23;;;;;;;0.77;0.77;;;;;;;8.80;71.61;94361.00;5062894;28;20286;-77
2024/03/11 08:51:49;;;;;;;0.53;0.50;;;;;;;8.72;71.43;94362.81;5063369;28;20177;-77
2024/03/11 08:54:14;;;;;;;0.80;0.60;;;;;;;9.12;70.40;94368.88;5058634;28;20195;-77
2024/03/11 08:56:39;;;;;;;0.77;0.47;;;;;;;9.20;69.71;94369.63;5060655;28;20212;-77
2024/03/11 08:59:10;;;;;;;0.53;0.50;;;;;;;9.16;69.05;94373.53;5076697;28;20172;-77
2024/03/11 09:01:40;;;;;;;1.27;0.50;;;;;;;9.40;70.09;94379.59;5071155;28;20788;-78
2024/03/11 09:04:10;;;;;;;1.97;0.70;;;;;;;9.86;69.03;94386.47;5079624;28;20466;-78
2024/03/11 09:06:38;;;;;;;0.67;0.50;;;;;;;9.55;67.15;94389.09;5064262;28;20293;-77
2024/03/11 09:09:04;;;;;;;0.50;0.47;;;;;;;9.45;66.64;94385.06;5057774;28;20235;-77
2024/03/11 09:11:29;;;;;;;0.60;0.37;;;;;;;9.85;66.27;94392.66;5059243;28;20200;-77
2024/03/11 09:13:57;;;;;;;0.60;0.60;;;;;;;10.45;65.01;94393.72;5075529;28;20172;-77
2024/03/11 09:16:23;;;;;;;0.47;0.30;;;;;;;10.10;63.32;94397.69;5075219;28;20700;-77
2024/03/11 09:18:48;;;;;;;1.10;0.60;;;;;;;10.55;64.11;94396.09;5076749;28;20177;-77
2024/03/11 09:21:14;;;;;;;1.37;0.53;;;;;;;10.74;63.40;94398.19;5094378;28;20172;-77
2024/03/11 09:23:39;;;;;;;0.80;0.40;;;;;;;10.36;63.50;94398.19;5080586;28;20192;-77
2024/03/11 09:26:09;;;;;;;2.00;0.40;;;;;;;10.61;62.77;94406.56;5059803;28;20192;-77
2024/03/11 09:28:35;;;;;;;0.40;0.40;;;;;;;10.56;62.17;94418.47;5075843;28;20176;-78
2024/03/11 09:31:00;;;;;;;0.60;0.60;;;;;;;10.80;62.52;94409.66;5077088;28;20238;-77
2024/03/11 09:33:27;;;;;;;1.63;0.63;;;;;;;10.85;63.06;94413.31;5057571;28;20188;-76
2024/03/11 09:35:53;;;;;;;1.50;0.50;;;;;;;10.65;62.11;94418.22;5092488;28;20208;-77
2024/03/11 09:38:19;;;;;;;0.80;0.80;;;;;;;10.83;61.93;94419.69;5061538;28;20176;-76
2024/03/11 09:40:47;;;;;;;1.20;0.60;;;;;;;10.64;61.31;94424.38;5097808;28;20191;-77
2024/03/11 09:43:13;;;;;;;0.47;0.40;;;;;;;10.54;61.89;94426.41;5064176;28;20219;-77
2024/03/11 09:45:40;;;;;;;3.50;0.70;;;;;;;10.13;61.30;94426.66;5077572;28;20201;-78
2024/03/11 09:48:06;;;;;;;2.10;0.57;;;;;;;10.34;61.03;94431.28;5064793;28;20571;-78
2024/03/11 09:50:37;;;;;;;1.47;0.70;;;;;;;10.39;60.98;94428.16;5081632;28;20211;-77
2024/03/11 09:53:18;;;;;;;0.80;0.50;;;;;;;10.26;62.40;94427.94;5091952;28;20218;-80
2024/03/11 09:55:44;;;;;;;2.83;0.60;;;;;;;10.33;62.13;94432.25;5060690;28;20754;-77
2024/03/11 09:58:11;;;;;;;2.20;0.60;;;;;;;10.09;61.42;94429.78;5060556;28;20180;-77
2024/03/11 10:00:57;;;;;;;0.47;0.47;;;;;;;10.30;61.54;94426.59;5078340;28;20192;-76
2024/03/11 10:03:24;;;;;;;1.43;0.40;;;;;;;10.31;60.67;94431.59;5073779;28;20196;-76
2024/03/11 10:06:03;;;;;;;0.47;0.47;;;;;;;10.88;60.60;94432.97;5072837;28;20223;-76
2024/03/11 10:08:32;;;;;;;0.87;0.50;;;;;;;10.78;59.69;94434.03;5073142;28;20184;-77
2024/03/11 10:11:14;;;;;;;0.40;0.40;;;;;;;10.90;59.40;94431.78;5054871;28;20205;-77
2024/03/11 10:13:40;;;;;;;0.97;0.70;;;;;;;10.54;59.72;94436.81;5093534;28;20206;-77
2024/03/11 10:16:17;;;;;;;1.57;0.70;;;;;;;10.60;59.64;94435.28;5056299;28;20210;-77
2024/03/11 10:19:11;;;;;;;0.40;0.40;;;;;;;10.22;58.22;94432.66;5072454;28;20238;-77
2024/03/11 10:21:38;;;;;;;0.77;0.40;;;;;;;10.64;58.03;94437.38;5074000;28;20188;-77
2024/03/11 10:24:04;;;;;;;6.03;1.03;;;;;;;10.72;58.46;94439.09;5060904;28;20241;-77
2024/03/11 10:26:33;;;;;;;11.73;1.47;;;;;;;10.61;58.40;94445.53;5075009;28;20192;-77
2024/03/11 10:29:00;;;;;;;2.93;0.97;;;;;;;10.76;57.35;94443.75;5069529;28;20192;-77
2024/03/11 10:31:27;;;;;;;1.20;0.93;;;;;;;10.89;56.18;94450.16;5074673;28;20176;-77
2024/03/11 10:34:04;;;;;;;4.00;0.60;;;;;;;11.07;56.55;94455.84;5066768;28;20251;-77
2024/03/11 10:36:30;;;;;;;0.40;0.40;;;;;;;11.24;56.00;94449.50;5070125;28;20195;-77
2024/03/11 10:39:17;;;;;;;0.87;0.57;;;;;;;11.67;56.64;94454.88;5079077;28;20204;-77
2024/03/11 10:41:43;;;;;;;1.90;0.60;;;;;;;11.64;55.08;94450.81;5079540;28;20637;-77
2024/03/11 10:44:15;;;;;;;1.70;1.00;;;;;;;12.01;54.50;94449.09;5098198;28;20264;-76
2024/03/11 10:46:41;;;;;;;1.33;0.50;;;;;;;12.30;53.95;94453.44;5061359;28;20223;-77
2024/03/11 10:49:12;;;;;;;0.83;0.60;;;;;;;12.59;53.06;94444.69;5082426;28;20219;-78
2024/03/11 10:51:45;;;;;;;2.23;0.70;;;;;;;13.05;51.99;94447.66;5095350;28;20214;-77
2024/03/11 10:54:20;;;;;;;0.97;0.50;;;;;;;13.30;51.17;94447.28;5077702;28;20176;-77
2024/03/11 10:56:45;;;;;;;0.47;0.47;;;;;;;13.26;49.75;94446.06;5078104;28;20253;-77
2024/03/11 10:59:14;;;;;;;0.73;0.40;;;;;;;12.91;49.71;94458.19;5064135;28;20184;-77
2024/03/11 11:01:42;;;;;;;0.93;0.40;;;;;;;13.00;50.34;94459.69;5080446;28;20214;-77
2024/03/11 11:04:13;;;;;;;0.60;0.50;;;;;;;12.83;50.94;94463.53;5077315;28;20203;-77
2024/03/11 11:06:43;;;;;;;1.07;0.40;;;;;;;12.47;49.57;94467.81;5080471;28;20207;-77
2024/03/11 11:09:11;;;;;;;0.40;0.37;;;;;;;13.02;49.51;94468.91;5075178;28;20181;-77
2024/03/11 11:11:51;;;;;;;0.50;0.40;;;;;;;13.13;49.60;94472.78;5057923;28;20181;-80
2024/03/11 11:14:18;;;;;;;0.50;0.30;;;;;;;12.80;49.17;94469.09;5080479;28;20179;-76
2024/03/11 11:16:45;;;;;;;0.40;0.40;;;;;;;12.84;49.61;94472.97;5076531;28;20200;-77
2024/03/11 11:19:12;;;;;;;0.40;0.40;;;;;;;13.14;48.25;94463.16;5075825;28;20208;-76
2024/03/11 11:21:39;;;;;;;0.40;0.40;;;;;;;12.86;48.75;94471.78;5080262;28;20191;-76
2024/03/11 11:24:23;;;;;;;0.77;0.33;;;;;;;12.73;46.65;94469.88;5062597;28;20212;-76
2024/03/11 11:26:48;;;;;;;0.60;0.50;;;;;;;12.78;49.08;94469.31;5097601;28;20910;-77
2024/03/11 11:29:24;;;;;;;1.60;0.50;;;;;;;12.72;50.31;94470.88;5062987;28;20291;-78
2024/03/11 11:32:11;;;;;;;2.10;1.43;;;;;;;12.90;50.44;94474.84;5063379;28;20267;-77
2024/03/11 11:34:46;;;;;;;1.17;0.53;;;;;;;13.20;50.35;94478.09;5078923;28;20188;-77
2024/03/11 11:37:30;;;;;;;2.53;2.33;;;;;;;13.24;50.78;94472.28;5074936;28;20761;-78